sensor_id;sensor_type;location;lat;lon;timestamp;temperature;humidity
2391;DHT22;22957;50.824;4.360;2023-02-15T00:01:51;10.60;99.90
2391;DHT22;22957;50.824;4.360;2023-02-15T00:04:20;10.30;99.90
2391;DHT22;22957;50.824;4.360;2023-02-15T00:06:45;10.30;99.90
2391;DHT22;22957;50.824;4.360;2023-02-15T00:09:12;10.60;99.90
2391;DHT22;22957;50.824;4.360;2023-02-15T00:11:38;10.40;99.90
2391;DHT22;22957;50.824;4.360;2023-02-15T00:14:18;9.90;99.90
2391;DHT22;22957;50.824;4.360;2023-02-15T00:16:45;10.00;99.90
2391;DHT22;22957;50.824;4.360;2023-02-15T00:19:12;10.40;99.90
2391;DHT22;22957;50.824;4.360;2023-02-15T00:21:39;10.50;99.90
2391;DHT22;22957;50.824;4.360;2023-02-15T00:24:06;10.10;99.90
2391;DHT22;22957;50.824;4.360;2023-02-15T00:26:32;10.10;99.90
2391;DHT22;22957;50.824;4.360;2023-02-15T00:28:58;9.80;99.90
2391;DHT22;22957;50.824;4.360;2023-02-15T00:31:25;9.90;99.90
2391;DHT22;22957;50.824;4.360;2023-02-15T00:33:51;10.00;99.90
2391;DHT22;22957;50.824;4.360;2023-02-15T00:36:16;9.70;99.90
2391;DHT22;22957;50.824;4.360;2023-02-15T00:38:42;9.70;99.90
2391;DHT22;22957;50.824;4.360;2023-02-15T00:41:08;9.60;99.90
2391;DHT22;22957;50.824;4.360;2023-02-15T00:43:35;9.60;99.90
2391;DHT22;22957;50.824;4.360;2023-02-15T00:46:03;9.50;99.90
2391;DHT22;22957;50.824;4.360;2023-02-15T00:48:29;9.70;99.90
2391;DHT22;22957;50.824;4.360;2023-02-15T00:50:57;9.70;99.90
2391;DHT22;22957;50.824;4.360;2023-02-15T00:53:26;9.90;99.90
2391;DHT22;22957;50.824;4.360;2023-02-15T00:55:52;9.80;99.90
2391;DHT22;22957;50.824;4.360;2023-02-15T00:58:18;9.70;99.90
2391;DHT22;22957;50.824;4.360;2023-02-15T01:00:45;10.10;99.90
2391;DHT22;22957;50.824;4.360;2023-02-15T01:03:13;10.20;99.90
2391;DHT22;22957;50.824;4.360;2023-02-15T01:05:39;10.20;99.90
2391;DHT22;22957;50.824;4.360;2023-02-15T01:08:05;10.60;99.90
2391;DHT22;22957;50.824;4.360;2023-02-15T01:10:31;10.20;99.90
2391;DHT22;22957;50.824;4.360;2023-02-15T01:12:57;10.60;99.90
2391;DHT22;22957;50.824;4.360;2023-02-15T01:15:23;10.10;99.90
2391;DHT22;22957;50.824;4.360;2023-02-15T01:17:51;10.10;99.90
2391;DHT22;22957;50.824;4.360;2023-02-15T01:20:26;9.70;99.90
2391;DHT22;22957;50.824;4.360;2023-02-15T01:22:52;9.60;99.90
2391;DHT22;22957;50.824;4.360;2023-02-15T01:25:20;9.70;99.90
2391;DHT22;22957;50.824;4.360;2023-02-15T01:27:47;9.80;99.90
2391;DHT22;22957;50.824;4.360;2023-02-15T01:30:13;9.60;99.90
2391;DHT22;22957;50.824;4.360;2023-02-15T01:32:40;9.70;99.90
2391;DHT22;22957;50.824;4.360;2023-02-15T01:35:06;9.50;99.90
2391;DHT22;22957;50.824;4.360;2023-02-15T01:37:33;9.00;99.90
2391;DHT22;22957;50.824;4.360;2023-02-15T01:40:00;8.80;99.90
2391;DHT22;22957;50.824;4.360;2023-02-15T01:42:26;9.00;99.90
2391;DHT22;22957;50.824;4.360;2023-02-15T01:44:57;8.60;99.90
2391;DHT22;22957;50.824;4.360;2023-02-15T01:47:35;8.50;99.90
2391;DHT22;22957;50.824;4.360;2023-02-15T01:52:50;8.40;99.90
2391;DHT22;22957;50.824;4.360;2023-02-15T01:55:17;8.00;99.90
2391;DHT22;22957;50.824;4.360;2023-02-15T01:57:45;8.00;99.90
2391;DHT22;22957;50.824;4.360;2023-02-15T02:00:13;7.90;99.90
2391;DHT22;22957;50.824;4.360;2023-02-15T02:02:41;8.10;99.90
2391;DHT22;22957;50.824;4.360;2023-02-15T02:05:08;8.40;99.90
2391;DHT22;22957;50.824;4.360;2023-02-15T02:07:39;8.50;99.90
2391;DHT22;22957;50.824;4.360;2023-02-15T02:10:08;8.60;99.90
2391;DHT22;22957;50.824;4.360;2023-02-15T02:12:35;8.40;99.90
2391;DHT22;22957;50.824;4.360;2023-02-15T02:15:02;8.60;99.90
2391;DHT22;22957;50.824;4.360;2023-02-15T02:23:39;8.40;99.90
2391;DHT22;22957;50.824;4.360;2023-02-15T02:31:44;8.50;99.90
2391;DHT22;22957;50.824;4.360;2023-02-15T02:39:59;8.20;99.90
2391;DHT22;22957;50.824;4.360;2023-02-15T02:45:13;7.90;99.90
2391;DHT22;22957;50.824;4.360;2023-02-15T02:47:49;8.30;99.90
2391;DHT22;22957;50.824;4.360;2023-02-15T02:50:24;8.20;99.90
2391;DHT22;22957;50.824;4.360;2023-02-15T02:52:52;8.20;99.90
2391;DHT22;22957;50.824;4.360;2023-02-15T03:01:06;8.30;99.90
2391;DHT22;22957;50.824;4.360;2023-02-15T03:03:43;8.10;99.90
2391;DHT22;22957;50.824;4.360;2023-02-15T03:06:20;8.10;99.90
2391;DHT22;22957;50.824;4.360;2023-02-15T03:08:51;8.10;99.90
2391;DHT22;22957;50.824;4.360;2023-02-15T03:11:19;8.00;99.90
2391;DHT22;22957;50.824;4.360;2023-02-15T03:13:48;7.70;99.90
2391;DHT22;22957;50.824;4.360;2023-02-15T03:16:15;7.80;99.90
2391;DHT22;22957;50.824;4.360;2023-02-15T03:19:09;7.80;99.90
2391;DHT22;22957;50.824;4.360;2023-02-15T03:24:19;7.70;99.90
2391;DHT22;22957;50.824;4.360;2023-02-15T03:26:50;7.40;99.90
2391;DHT22;22957;50.824;4.360;2023-02-15T03:29:19;7.70;99.90
2391;DHT22;22957;50.824;4.360;2023-02-15T03:32:00;7.70;99.90
2391;DHT22;22957;50.824;4.360;2023-02-15T03:34:27;7.40;99.90
2391;DHT22;22957;50.824;4.360;2023-02-15T03:40:37;8.10;99.90
2391;DHT22;22957;50.824;4.360;2023-02-15T03:45:37;8.90;99.90
2391;DHT22;22957;50.824;4.360;2023-02-15T03:48:05;8.90;99.90
2391;DHT22;22957;50.824;4.360;2023-02-15T03:50:33;8.80;99.90
2391;DHT22;22957;50.824;4.360;2023-02-15T03:53:20;8.30;99.90
2391;DHT22;22957;50.824;4.360;2023-02-15T03:55:48;7.80;99.90
2391;DHT22;22957;50.824;4.360;2023-02-15T03:58:14;8.00;99.90
2391;DHT22;22957;50.824;4.360;2023-02-15T04:01:33;7.90;99.90
2391;DHT22;22957;50.824;4.360;2023-02-15T04:04:20;7.70;99.90
2391;DHT22;22957;50.824;4.360;2023-02-15T04:06:47;8.00;99.90
2391;DHT22;22957;50.824;4.360;2023-02-15T04:09:14;7.70;99.90
2391;DHT22;22957;50.824;4.360;2023-02-15T04:11:58;7.40;99.90
2391;DHT22;22957;50.824;4.360;2023-02-15T04:14:23;7.80;99.90
2391;DHT22;22957;50.824;4.360;2023-02-15T04:17:08;7.50;99.90
2391;DHT22;22957;50.824;4.360;2023-02-15T04:19:35;7.70;99.90
2391;DHT22;22957;50.824;4.360;2023-02-15T04:22:19;7.80;99.90
2391;DHT22;22957;50.824;4.360;2023-02-15T04:25:04;7.70;99.90
2391;DHT22;22957;50.824;4.360;2023-02-15T04:27:47;8.10;99.90
2391;DHT22;22957;50.824;4.360;2023-02-15T04:30:14;7.90;99.90
2391;DHT22;22957;50.824;4.360;2023-02-15T04:32:41;8.10;99.90
2391;DHT22;22957;50.824;4.360;2023-02-15T04:35:07;8.00;99.90
2391;DHT22;22957;50.824;4.360;2023-02-15T04:37:33;8.50;99.90
2391;DHT22;22957;50.824;4.360;2023-02-15T04:39:59;8.70;99.90
2391;DHT22;22957;50.824;4.360;2023-02-15T04:42:25;8.80;99.90
2391;DHT22;22957;50.824;4.360;2023-02-15T04:44:51;8.90;99.90
2391;DHT22;22957;50.824;4.360;2023-02-15T04:47:17;8.80;99.90
2391;DHT22;22957;50.824;4.360;2023-02-15T04:49:43;8.90;99.90
2391;DHT22;22957;50.824;4.360;2023-02-15T04:52:09;8.50;99.90
2391;DHT22;22957;50.824;4.360;2023-02-15T04:54:35;8.50;99.90
2391;DHT22;22957;50.824;4.360;2023-02-15T04:57:00;8.50;99.90
2391;DHT22;22957;50.824;4.360;2023-02-15T04:59:26;8.80;99.90
2391;DHT22;22957;50.824;4.360;2023-02-15T05:01:52;8.60;99.90
2391;DHT22;22957;50.824;4.360;2023-02-15T05:04:18;8.70;99.90
2391;DHT22;22957;50.824;4.360;2023-02-15T05:06:44;8.40;99.90
2391;DHT22;22957;50.824;4.360;2023-02-15T05:09:11;8.40;99.90
2391;DHT22;22957;50.824;4.360;2023-02-15T05:11:37;7.80;99.90
2391;DHT22;22957;50.824;4.360;2023-02-15T05:14:03;8.10;99.90
2391;DHT22;22957;50.824;4.360;2023-02-15T05:16:28;8.10;99.90
2391;DHT22;22957;50.824;4.360;2023-02-15T05:18:54;8.30;99.90
2391;DHT22;22957;50.824;4.360;2023-02-15T05:21:20;8.40;99.90
2391;DHT22;22957;50.824;4.360;2023-02-15T05:23:45;8.80;99.90
2391;DHT22;22957;50.824;4.360;2023-02-15T05:26:16;8.90;99.90
2391;DHT22;22957;50.824;4.360;2023-02-15T05:29:01;8.50;99.90
2391;DHT22;22957;50.824;4.360;2023-02-15T05:31:26;8.30;99.90
2391;DHT22;22957;50.824;4.360;2023-02-15T05:33:52;8.40;99.90
2391;DHT22;22957;50.824;4.360;2023-02-15T05:36:18;8.50;99.90
2391;DHT22;22957;50.824;4.360;2023-02-15T05:38:44;8.50;99.90
2391;DHT22;22957;50.824;4.360;2023-02-15T05:41:10;8.60;99.90
2391;DHT22;22957;50.824;4.360;2023-02-15T05:43:36;8.80;99.90
2391;DHT22;22957;50.824;4.360;2023-02-15T05:46:03;8.40;99.90
2391;DHT22;22957;50.824;4.360;2023-02-15T05:48:29;8.50;99.90
2391;DHT22;22957;50.824;4.360;2023-02-15T05:51:04;8.40;99.90
2391;DHT22;22957;50.824;4.360;2023-02-15T05:53:31;8.50;99.90
2391;DHT22;22957;50.824;4.360;2023-02-15T05:55:57;8.70;99.90
2391;DHT22;22957;50.824;4.360;2023-02-15T05:58:30;8.50;99.90
2391;DHT22;22957;50.824;4.360;2023-02-15T06:00:56;8.70;99.90
2391;DHT22;22957;50.824;4.360;2023-02-15T06:03:23;8.70;99.90
2391;DHT22;22957;50.824;4.360;2023-02-15T06:05:49;8.50;99.90
2391;DHT22;22957;50.824;4.360;2023-02-15T06:08:15;8.70;99.90
2391;DHT22;22957;50.824;4.360;2023-02-15T06:10:41;8.60;99.90
2391;DHT22;22957;50.824;4.360;2023-02-15T06:13:06;8.80;99.90
2391;DHT22;22957;50.824;4.360;2023-02-15T06:15:33;8.30;99.90
2391;DHT22;22957;50.824;4.360;2023-02-15T06:17:59;8.70;99.90
2391;DHT22;22957;50.824;4.360;2023-02-15T06:20:24;8.50;99.90
2391;DHT22;22957;50.824;4.360;2023-02-15T06:22:50;8.70;99.90
2391;DHT22;22957;50.824;4.360;2023-02-15T06:25:16;8.70;99.90
2391;DHT22;22957;50.824;4.360;2023-02-15T06:27:42;8.50;99.90
2391;DHT22;22957;50.824;4.360;2023-02-15T06:30:09;8.40;99.90
2391;DHT22;22957;50.824;4.360;2023-02-15T06:32:35;8.40;99.90
2391;DHT22;22957;50.824;4.360;2023-02-15T06:35:01;8.30;99.90
2391;DHT22;22957;50.824;4.360;2023-02-15T06:37:27;8.10;99.90
2391;DHT22;22957;50.824;4.360;2023-02-15T06:39:53;8.50;99.90
2391;DHT22;22957;50.824;4.360;2023-02-15T06:42:18;8.70;99.90
2391;DHT22;22957;50.824;4.360;2023-02-15T06:44:45;8.30;99.90
2391;DHT22;22957;50.824;4.360;2023-02-15T06:47:11;8.00;99.90
2391;DHT22;22957;50.824;4.360;2023-02-15T06:49:37;8.40;99.90
2391;DHT22;22957;50.824;4.360;2023-02-15T06:52:03;8.00;99.90
2391;DHT22;22957;50.824;4.360;2023-02-15T06:54:29;8.10;99.90
2391;DHT22;22957;50.824;4.360;2023-02-15T06:56:54;9.00;99.90
2391;DHT22;22957;50.824;4.360;2023-02-15T06:59:20;8.70;99.90
2391;DHT22;22957;50.824;4.360;2023-02-15T07:01:46;8.20;99.90
2391;DHT22;22957;50.824;4.360;2023-02-15T07:04:12;8.40;99.90
2391;DHT22;22957;50.824;4.360;2023-02-15T07:06:38;8.40;99.90
2391;DHT22;22957;50.824;4.360;2023-02-15T07:09:04;8.30;99.90
2391;DHT22;22957;50.824;4.360;2023-02-15T07:11:30;8.30;99.90
2391;DHT22;22957;50.824;4.360;2023-02-15T07:14:15;8.90;99.90
2391;DHT22;22957;50.824;4.360;2023-02-15T07:16:40;8.60;99.90
2391;DHT22;22957;50.824;4.360;2023-02-15T07:19:06;8.70;99.90
2391;DHT22;22957;50.824;4.360;2023-02-15T07:21:33;9.10;99.90
2391;DHT22;22957;50.824;4.360;2023-02-15T07:23:59;8.80;99.90
2391;DHT22;22957;50.824;4.360;2023-02-15T07:26:26;9.00;99.90
2391;DHT22;22957;50.824;4.360;2023-02-15T07:28:51;9.60;99.90
2391;DHT22;22957;50.824;4.360;2023-02-15T07:31:17;10.70;99.90
2391;DHT22;22957;50.824;4.360;2023-02-15T07:33:43;11.30;99.90
2391;DHT22;22957;50.824;4.360;2023-02-15T07:36:09;11.80;99.90
2391;DHT22;22957;50.824;4.360;2023-02-15T07:38:39;12.10;99.90
2391;DHT22;22957;50.824;4.360;2023-02-15T07:41:15;11.70;99.90
2391;DHT22;22957;50.824;4.360;2023-02-15T07:43:43;11.90;99.90
2391;DHT22;22957;50.824;4.360;2023-02-15T07:46:12;11.60;99.90
2391;DHT22;22957;50.824;4.360;2023-02-15T07:48:39;11.70;99.90
2391;DHT22;22957;50.824;4.360;2023-02-15T07:51:07;12.00;99.90
2391;DHT22;22957;50.824;4.360;2023-02-15T07:53:33;11.80;99.90
2391;DHT22;22957;50.824;4.360;2023-02-15T07:56:00;12.00;99.90
2391;DHT22;22957;50.824;4.360;2023-02-15T07:58:26;12.60;99.90
2391;DHT22;22957;50.824;4.360;2023-02-15T08:01:13;12.40;99.90
2391;DHT22;22957;50.824;4.360;2023-02-15T08:03:39;11.90;99.90
2391;DHT22;22957;50.824;4.360;2023-02-15T08:06:05;12.10;99.90
2391;DHT22;22957;50.824;4.360;2023-02-15T08:08:30;12.70;99.90
2391;DHT22;22957;50.824;4.360;2023-02-15T08:13:49;12.60;99.90
2391;DHT22;22957;50.824;4.360;2023-02-15T08:16:28;12.60;99.90
2391;DHT22;22957;50.824;4.360;2023-02-15T08:18:55;12.40;99.90
2391;DHT22;22957;50.824;4.360;2023-02-15T08:21:22;12.40;99.90
2391;DHT22;22957;50.824;4.360;2023-02-15T08:23:47;12.90;99.90
2391;DHT22;22957;50.824;4.360;2023-02-15T08:26:13;13.00;99.90
2391;DHT22;22957;50.824;4.360;2023-02-15T08:28:40;12.50;99.90
2391;DHT22;22957;50.824;4.360;2023-02-15T08:31:10;13.40;99.90
2391;DHT22;22957;50.824;4.360;2023-02-15T08:33:39;13.40;99.90
2391;DHT22;22957;50.824;4.360;2023-02-15T08:36:14;13.40;99.90
2391;DHT22;22957;50.824;4.360;2023-02-15T08:38:40;13.60;99.90
2391;DHT22;22957;50.824;4.360;2023-02-15T08:41:16;13.70;99.90
2391;DHT22;22957;50.824;4.360;2023-02-15T08:43:43;14.00;99.90
2391;DHT22;22957;50.824;4.360;2023-02-15T08:46:10;14.10;99.90
2391;DHT22;22957;50.824;4.360;2023-02-15T08:48:36;14.30;99.90
2391;DHT22;22957;50.824;4.360;2023-02-15T08:51:17;14.50;99.90
2391;DHT22;22957;50.824;4.360;2023-02-15T08:53:46;14.30;99.90
2391;DHT22;22957;50.824;4.360;2023-02-15T08:56:15;15.00;99.90
2391;DHT22;22957;50.824;4.360;2023-02-15T08:58:41;14.50;99.90
2391;DHT22;22957;50.824;4.360;2023-02-15T09:01:15;15.00;99.90
2391;DHT22;22957;50.824;4.360;2023-02-15T09:03:46;15.20;99.90
2391;DHT22;22957;50.824;4.360;2023-02-15T09:06:13;15.40;99.90
2391;DHT22;22957;50.824;4.360;2023-02-15T09:08:39;15.20;99.90
2391;DHT22;22957;50.824;4.360;2023-02-15T09:11:26;15.00;99.90
2391;DHT22;22957;50.824;4.360;2023-02-15T09:13:57;14.90;99.90
2391;DHT22;22957;50.824;4.360;2023-02-15T09:16:26;15.00;99.90
2391;DHT22;22957;50.824;4.360;2023-02-15T09:18:53;15.30;99.90
2391;DHT22;22957;50.824;4.360;2023-02-15T09:21:21;15.20;99.90
2391;DHT22;22957;50.824;4.360;2023-02-15T09:23:49;15.10;99.90
2391;DHT22;22957;50.824;4.360;2023-02-15T09:26:17;15.20;99.90
2391;DHT22;22957;50.824;4.360;2023-02-15T09:28:44;15.30;99.90
2391;DHT22;22957;50.824;4.360;2023-02-15T09:31:11;15.90;99.90
2391;DHT22;22957;50.824;4.360;2023-02-15T09:33:39;16.20;99.80
2391;DHT22;22957;50.824;4.360;2023-02-15T09:36:12;16.60;99.90
2391;DHT22;22957;50.824;4.360;2023-02-15T09:38:38;16.90;99.70
2391;DHT22;22957;50.824;4.360;2023-02-15T09:46:33;16.00;99.90
2391;DHT22;22957;50.824;4.360;2023-02-15T10:03:19;16.20;99.80
2391;DHT22;22957;50.824;4.360;2023-02-15T10:08:51;16.90;99.30
2391;DHT22;22957;50.824;4.360;2023-02-15T10:14:29;17.40;98.00
2391;DHT22;22957;50.824;4.360;2023-02-15T10:27:49;16.70;98.30
2391;DHT22;22957;50.824;4.360;2023-02-15T10:33:03;16.50;98.20
2391;DHT22;22957;50.824;4.360;2023-02-15T10:41:17;17.10;97.90
2391;DHT22;22957;50.824;4.360;2023-02-15T10:44:13;16.80;98.00
2391;DHT22;22957;50.824;4.360;2023-02-15T11:03:52;16.90;97.40
2391;DHT22;22957;50.824;4.360;2023-02-15T11:06:21;16.90;98.20
2391;DHT22;22957;50.824;4.360;2023-02-15T11:09:11;16.60;98.00
2391;DHT22;22957;50.824;4.360;2023-02-15T11:11:45;16.60;97.90
2391;DHT22;22957;50.824;4.360;2023-02-15T11:14:23;16.40;98.50
2391;DHT22;22957;50.824;4.360;2023-02-15T11:16:56;16.40;98.50
2391;DHT22;22957;50.824;4.360;2023-02-15T11:19:28;17.10;98.00
2391;DHT22;22957;50.824;4.360;2023-02-15T11:22:04;17.40;97.80
2391;DHT22;22957;50.824;4.360;2023-02-15T11:24:35;17.50;97.00
2391;DHT22;22957;50.824;4.360;2023-02-15T11:27:16;17.20;97.20
2391;DHT22;22957;50.824;4.360;2023-02-15T11:30:03;17.10;97.40
2391;DHT22;22957;50.824;4.360;2023-02-15T11:32:35;16.70;97.90
2391;DHT22;22957;50.824;4.360;2023-02-15T11:37:43;17.00;98.70
2391;DHT22;22957;50.824;4.360;2023-02-15T11:45:49;18.10;97.60
2391;DHT22;22957;50.824;4.360;2023-02-15T11:48:15;17.70;97.50
2391;DHT22;22957;50.824;4.360;2023-02-15T11:50:42;17.90;97.80
2391;DHT22;22957;50.824;4.360;2023-02-15T11:53:20;17.80;97.50
2391;DHT22;22957;50.824;4.360;2023-02-15T11:55:50;17.60;97.90
2391;DHT22;22957;50.824;4.360;2023-02-15T12:00:58;17.70;97.00
2391;DHT22;22957;50.824;4.360;2023-02-15T12:03:46;17.20;97.70
2391;DHT22;22957;50.824;4.360;2023-02-15T12:06:28;16.70;98.40
2391;DHT22;22957;50.824;4.360;2023-02-15T12:09:07;16.70;98.50
2391;DHT22;22957;50.824;4.360;2023-02-15T12:11:40;16.60;98.60
2391;DHT22;22957;50.824;4.360;2023-02-15T12:14:08;16.50;98.90
2391;DHT22;22957;50.824;4.360;2023-02-15T12:16:44;16.70;98.40
2391;DHT22;22957;50.824;4.360;2023-02-15T12:21:52;16.10;99.60
2391;DHT22;22957;50.824;4.360;2023-02-15T12:24:34;16.10;99.50
2391;DHT22;22957;50.824;4.360;2023-02-15T12:27:24;16.50;99.70
2391;DHT22;22957;50.824;4.360;2023-02-15T12:30:06;16.30;99.70
2391;DHT22;22957;50.824;4.360;2023-02-15T12:32:49;16.30;99.30
2391;DHT22;22957;50.824;4.360;2023-02-15T12:35:28;16.80;99.30
2391;DHT22;22957;50.824;4.360;2023-02-15T12:38:00;16.50;99.90
2391;DHT22;22957;50.824;4.360;2023-02-15T12:40:28;16.50;99.90
2391;DHT22;22957;50.824;4.360;2023-02-15T12:42:54;16.50;99.90
2391;DHT22;22957;50.824;4.360;2023-02-15T12:45:27;16.10;99.90
2391;DHT22;22957;50.824;4.360;2023-02-15T12:48:17;16.50;99.90
2391;DHT22;22957;50.824;4.360;2023-02-15T12:50:48;17.00;99.70
2391;DHT22;22957;50.824;4.360;2023-02-15T12:55:57;17.50;99.40
2391;DHT22;22957;50.824;4.360;2023-02-15T12:58:30;17.20;99.50
2391;DHT22;22957;50.824;4.360;2023-02-15T13:03:35;16.60;99.90
2391;DHT22;22957;50.824;4.360;2023-02-15T13:06:01;16.90;99.90
2391;DHT22;22957;50.824;4.360;2023-02-15T13:08:45;16.70;99.90
2391;DHT22;22957;50.824;4.360;2023-02-15T13:11:12;16.50;99.90
2391;DHT22;22957;50.824;4.360;2023-02-15T13:13:58;16.30;99.90
2391;DHT22;22957;50.824;4.360;2023-02-15T13:16:32;16.30;99.90
2391;DHT22;22957;50.824;4.360;2023-02-15T13:21:43;16.60;99.90
2391;DHT22;22957;50.824;4.360;2023-02-15T13:24:18;16.30;99.90
2391;DHT22;22957;50.824;4.360;2023-02-15T13:26:47;16.30;99.90
2391;DHT22;22957;50.824;4.360;2023-02-15T13:29:21;16.10;99.90
2391;DHT22;22957;50.824;4.360;2023-02-15T13:31:49;15.70;99.90
2391;DHT22;22957;50.824;4.360;2023-02-15T13:34:20;16.30;99.90
2391;DHT22;22957;50.824;4.360;2023-02-15T13:39:41;16.60;99.90
2391;DHT22;22957;50.824;4.360;2023-02-15T13:42:25;17.00;99.90
2391;DHT22;22957;50.824;4.360;2023-02-15T13:48:14;16.80;99.90
2391;DHT22;22957;50.824;4.360;2023-02-15T14:01:58;17.00;99.90
2391;DHT22;22957;50.824;4.360;2023-02-15T14:10:00;16.70;99.90
2391;DHT22;22957;50.824;4.360;2023-02-15T14:18:18;16.40;99.90
2391;DHT22;22957;50.824;4.360;2023-02-15T14:20:46;17.10;99.90
2391;DHT22;22957;50.824;4.360;2023-02-15T14:26:26;16.90;99.90
2391;DHT22;22957;50.824;4.360;2023-02-15T14:31:57;16.80;99.90
2391;DHT22;22957;50.824;4.360;2023-02-15T14:34:31;16.40;99.90
2391;DHT22;22957;50.824;4.360;2023-02-15T14:37:03;15.80;99.90
2391;DHT22;22957;50.824;4.360;2023-02-15T14:39:43;15.70;99.90
2391;DHT22;22957;50.824;4.360;2023-02-15T14:42:37;15.80;99.90
2391;DHT22;22957;50.824;4.360;2023-02-15T14:47:46;15.70;99.90
2391;DHT22;22957;50.824;4.360;2023-02-15T14:50:38;16.10;99.90
2391;DHT22;22957;50.824;4.360;2023-02-15T14:58:36;15.70;99.90
2391;DHT22;22957;50.824;4.360;2023-02-15T15:01:08;15.50;99.90
2391;DHT22;22957;50.824;4.360;2023-02-15T15:03:35;15.50;99.90
2391;DHT22;22957;50.824;4.360;2023-02-15T15:06:03;15.50;99.90
2391;DHT22;22957;50.824;4.360;2023-02-15T15:08:40;16.00;99.90
2391;DHT22;22957;50.824;4.360;2023-02-15T15:14:00;15.30;99.90
2391;DHT22;22957;50.824;4.360;2023-02-15T15:16:47;15.80;99.90
2391;DHT22;22957;50.824;4.360;2023-02-15T15:22:22;15.50;99.90
2391;DHT22;22957;50.824;4.360;2023-02-15T15:24:54;15.20;99.90
2391;DHT22;22957;50.824;4.360;2023-02-15T15:27:49;15.50;99.90
2391;DHT22;22957;50.824;4.360;2023-02-15T15:41:43;14.90;99.90
2391;DHT22;22957;50.824;4.360;2023-02-15T15:50:19;15.20;99.90
2391;DHT22;22957;50.824;4.360;2023-02-15T15:52:57;15.30;99.90
2391;DHT22;22957;50.824;4.360;2023-02-15T15:55:27;15.30;99.90
2391;DHT22;22957;50.824;4.360;2023-02-15T15:57:56;15.10;99.90
2391;DHT22;22957;50.824;4.360;2023-02-15T16:00:55;14.90;99.90
2391;DHT22;22957;50.824;4.360;2023-02-15T16:03:25;14.70;99.90
2391;DHT22;22957;50.824;4.360;2023-02-15T16:05:52;14.90;99.90
2391;DHT22;22957;50.824;4.360;2023-02-15T16:08:32;14.80;99.90
2391;DHT22;22957;50.824;4.360;2023-02-15T16:10:58;14.60;99.90
2391;DHT22;22957;50.824;4.360;2023-02-15T16:13:25;14.60;99.90
2391;DHT22;22957;50.824;4.360;2023-02-15T16:15:53;14.30;99.90
2391;DHT22;22957;50.824;4.360;2023-02-15T16:18:23;14.30;99.90
2391;DHT22;22957;50.824;4.360;2023-02-15T16:20:57;14.60;99.90
2391;DHT22;22957;50.824;4.360;2023-02-15T16:28:53;14.60;99.90
2391;DHT22;22957;50.824;4.360;2023-02-15T16:31:20;14.50;99.90
2391;DHT22;22957;50.824;4.360;2023-02-15T16:33:53;14.60;99.90
2391;DHT22;22957;50.824;4.360;2023-02-15T16:36:29;14.20;99.90
2391;DHT22;22957;50.824;4.360;2023-02-15T16:41:28;14.00;99.90
2391;DHT22;22957;50.824;4.360;2023-02-15T16:43:57;13.60;99.90
2391;DHT22;22957;50.824;4.360;2023-02-15T16:46:36;14.00;99.90
2391;DHT22;22957;50.824;4.360;2023-02-15T16:49:07;13.70;99.90
2391;DHT22;22957;50.824;4.360;2023-02-15T16:51:41;13.80;99.90
2391;DHT22;22957;50.824;4.360;2023-02-15T16:54:18;13.70;99.90
2391;DHT22;22957;50.824;4.360;2023-02-15T16:56:45;13.50;99.90
2391;DHT22;22957;50.824;4.360;2023-02-15T17:01:56;13.70;99.90
2391;DHT22;22957;50.824;4.360;2023-02-15T17:07:16;12.90;99.90
2391;DHT22;22957;50.824;4.360;2023-02-15T17:09:56;12.80;99.90
2391;DHT22;22957;50.824;4.360;2023-02-15T17:12:47;12.90;99.90
2391;DHT22;22957;50.824;4.360;2023-02-15T17:18:09;12.70;99.90
2391;DHT22;22957;50.824;4.360;2023-02-15T17:20:38;12.70;99.90
2391;DHT22;22957;50.824;4.360;2023-02-15T17:25:46;12.70;99.90
2391;DHT22;22957;50.824;4.360;2023-02-15T17:28:18;13.10;99.90
2391;DHT22;22957;50.824;4.360;2023-02-15T17:30:45;12.70;99.90
2391;DHT22;22957;50.824;4.360;2023-02-15T17:33:25;12.30;99.90
2391;DHT22;22957;50.824;4.360;2023-02-15T17:38:31;12.70;99.90
2391;DHT22;22957;50.824;4.360;2023-02-15T17:40:57;12.20;99.90
2391;DHT22;22957;50.824;4.360;2023-02-15T17:43:26;12.40;99.90
2391;DHT22;22957;50.824;4.360;2023-02-15T17:45:52;12.50;99.90
2391;DHT22;22957;50.824;4.360;2023-02-15T17:48:28;12.50;99.90
2391;DHT22;22957;50.824;4.360;2023-02-15T17:51:00;12.20;99.90
2391;DHT22;22957;50.824;4.360;2023-02-15T17:53:26;12.10;99.90
2391;DHT22;22957;50.824;4.360;2023-02-15T17:55:52;12.60;99.90
2391;DHT22;22957;50.824;4.360;2023-02-15T17:58:19;12.60;99.90
2391;DHT22;22957;50.824;4.360;2023-02-15T18:00:56;12.20;99.90
2391;DHT22;22957;50.824;4.360;2023-02-15T18:06:25;12.60;99.90
2391;DHT22;22957;50.824;4.360;2023-02-15T18:09:15;12.40;99.90
2391;DHT22;22957;50.824;4.360;2023-02-15T18:12:00;12.50;99.90
2391;DHT22;22957;50.824;4.360;2023-02-15T18:14:25;12.40;99.90
2391;DHT22;22957;50.824;4.360;2023-02-15T18:16:51;12.60;99.90
2391;DHT22;22957;50.824;4.360;2023-02-15T18:19:22;12.50;99.90
2391;DHT22;22957;50.824;4.360;2023-02-15T18:21:49;12.50;99.90
2391;DHT22;22957;50.824;4.360;2023-02-15T18:24:21;12.40;99.90
2391;DHT22;22957;50.824;4.360;2023-02-15T18:26:49;12.40;99.90
2391;DHT22;22957;50.824;4.360;2023-02-15T18:29:15;12.30;99.90
2391;DHT22;22957;50.824;4.360;2023-02-15T18:31:41;12.40;99.90
2391;DHT22;22957;50.824;4.360;2023-02-15T18:34:26;12.00;99.90
2391;DHT22;22957;50.824;4.360;2023-02-15T18:36:52;12.10;99.90
2391;DHT22;22957;50.824;4.360;2023-02-15T18:39:38;12.20;99.90
2391;DHT22;22957;50.824;4.360;2023-02-15T18:42:08;12.30;99.90
2391;DHT22;22957;50.824;4.360;2023-02-15T18:44:39;11.80;99.90
2391;DHT22;22957;50.824;4.360;2023-02-15T18:47:04;12.10;99.90
2391;DHT22;22957;50.824;4.360;2023-02-15T18:49:30;11.80;99.90
2391;DHT22;22957;50.824;4.360;2023-02-15T18:51:56;11.90;99.90
2391;DHT22;22957;50.824;4.360;2023-02-15T18:54:22;11.90;99.90
2391;DHT22;22957;50.824;4.360;2023-02-15T18:56:57;12.00;99.90
2391;DHT22;22957;50.824;4.360;2023-02-15T18:59:26;12.10;99.90
2391;DHT22;22957;50.824;4.360;2023-02-15T19:01:52;11.90;99.90
2391;DHT22;22957;50.824;4.360;2023-02-15T19:04:19;12.00;99.90
2391;DHT22;22957;50.824;4.360;2023-02-15T19:06:47;12.40;99.90
2391;DHT22;22957;50.824;4.360;2023-02-15T19:09:16;11.80;99.90
2391;DHT22;22957;50.824;4.360;2023-02-15T19:11:50;12.00;99.90
2391;DHT22;22957;50.824;4.360;2023-02-15T19:14:25;12.10;99.90
2391;DHT22;22957;50.824;4.360;2023-02-15T19:16:51;11.80;99.90
2391;DHT22;22957;50.824;4.360;2023-02-15T19:19:17;12.00;99.90
2391;DHT22;22957;50.824;4.360;2023-02-15T19:21:43;12.10;99.90
2391;DHT22;22957;50.824;4.360;2023-02-15T19:24:16;12.40;99.90
2391;DHT22;22957;50.824;4.360;2023-02-15T19:26:46;12.50;99.90
2391;DHT22;22957;50.824;4.360;2023-02-15T19:29:24;12.20;99.90
2391;DHT22;22957;50.824;4.360;2023-02-15T19:31:50;12.40;99.90
2391;DHT22;22957;50.824;4.360;2023-02-15T19:34:17;12.50;99.90
2391;DHT22;22957;50.824;4.360;2023-02-15T19:36:52;12.30;99.90
2391;DHT22;22957;50.824;4.360;2023-02-15T19:39:22;12.20;99.90
2391;DHT22;22957;50.824;4.360;2023-02-15T19:41:51;11.80;99.90
2391;DHT22;22957;50.824;4.360;2023-02-15T19:44:17;11.90;99.90
2391;DHT22;22957;50.824;4.360;2023-02-15T19:46:44;11.60;99.90
2391;DHT22;22957;50.824;4.360;2023-02-15T19:49:10;11.80;99.90